createdAt,value
2023-03-30T00:01:15.387Z,99033.34
2023-03-30T00:03:44.902Z,99034.91
2023-03-30T00:06:14.801Z,99018.31
2023-03-30T00:08:42.666Z,99005.66
2023-03-30T00:11:13.776Z,98999.25
2023-03-30T00:13:41.580Z,98973.50
2023-03-30T00:16:12.698Z,98972.94
2023-03-30T00:18:40.534Z,98978.53
2023-03-30T00:21:11.277Z,98963.75
2023-03-30T00:23:39.622Z,98947.63
2023-03-30T00:26:08.305Z,98954.59
2023-03-30T00:28:35.848Z,98949.31
2023-03-30T00:31:03.403Z,98943.53
2023-03-30T00:33:44.786Z,98928.66
2023-03-30T00:36:14.028Z,98935.41
2023-03-30T00:38:41.530Z,98938.31
2023-03-30T00:41:09.473Z,98941.41
2023-03-30T00:43:59.471Z,98929.13
2023-03-30T00:46:27.202Z,98939.75
2023-03-30T00:49:00.029Z,98951.16
2023-03-30T00:51:28.878Z,98938.53
2023-03-30T00:54:12.958Z,98926.53
2023-03-30T00:56:40.812Z,98914.72
2023-03-30T00:59:09.252Z,98910.81
2023-03-30T01:01:39.628Z,98913.75
2023-03-30T01:04:08.730Z,98910.19
2023-03-30T01:06:37.010Z,98916.13
2023-03-30T01:09:04.405Z,98911.00
2023-03-30T01:11:31.796Z,98917.84
2023-03-30T01:14:03.499Z,98916.31
2023-03-30T01:16:38.480Z,98925.44
2023-03-30T01:19:24.358Z,98933.41
2023-03-30T01:22:34.705Z,98925.94
2023-03-30T01:25:15.285Z,98918.59
2023-03-30T01:28:19.794Z,98915.81
2023-03-30T01:31:20.472Z,98916.53
2023-03-30T01:34:27.951Z,98921.16
2023-03-30T01:38:01.664Z,98924.59
2023-03-30T01:41:02.059Z,98926.75
2023-03-30T01:43:52.682Z,98936.50
2023-03-30T01:46:37.546Z,98948.88
2023-03-30T01:49:36.725Z,98949.09
2023-03-30T01:52:15.564Z,98942.75
2023-03-30T01:55:01.552Z,98955.97
2023-03-30T01:57:50.182Z,98949.78
2023-03-30T02:00:22.572Z,98960.84
2023-03-30T02:02:56.370Z,98961.31
2023-03-30T02:05:24.727Z,98973.19
2023-03-30T02:08:03.595Z,99018.81
2023-03-30T02:10:33.977Z,99031.53
2023-03-30T02:13:01.456Z,99042.41
2023-03-30T02:15:46.436Z,99090.66
2023-03-30T02:18:13.735Z,99113.72
2023-03-30T02:20:42.650Z,99131.50
2023-03-30T02:23:10.053Z,99132.78
2023-03-30T02:25:38.649Z,99127.53
2023-03-30T02:28:08.259Z,99094.59
2023-03-30T02:30:40.504Z,99091.47
2023-03-30T02:33:12.967Z,99076.34
2023-03-30T02:36:07.138Z,99076.56
2023-03-30T02:39:18.542Z,99080.09
2023-03-30T02:42:20.510Z,99112.94
2023-03-30T02:45:00.117Z,99127.97
2023-03-30T02:48:06.120Z,99133.97
2023-03-30T02:50:34.721Z,99125.94
2023-03-30T02:53:23.443Z,99126.91
2023-03-30T02:55:54.755Z,99129.50
2023-03-30T02:58:30.942Z,99119.41
2023-03-30T03:01:13.512Z,99152.97
2023-03-30T03:03:45.772Z,99155.13
2023-03-30T03:06:14.901Z,99154.53
2023-03-30T03:08:45.092Z,99156.28
2023-03-30T03:11:12.759Z,99148.25
2023-03-30T03:13:40.684Z,99162.59
2023-03-30T03:16:13.737Z,99177.63
2023-03-30T03:18:41.893Z,99180.72
2023-03-30T03:21:10.104Z,99194.50
2023-03-30T03:23:37.599Z,99167.78
2023-03-30T03:26:06.723Z,99174.50
2023-03-30T03:28:34.809Z,99183.91
2023-03-30T03:31:02.985Z,99160.31
2023-03-30T03:33:32.048Z,99148.03
2023-03-30T03:36:00.551Z,99160.22
2023-03-30T03:38:28.395Z,99163.94
2023-03-30T03:40:58.319Z,99179.59
2023-03-30T03:43:26.160Z,99172.09
2023-03-30T03:45:53.939Z,99169.63
2023-03-30T03:48:24.084Z,99167.81
2023-03-30T03:50:57.247Z,99181.38
2023-03-30T03:53:27.682Z,99161.66
2023-03-30T03:55:55.292Z,99165.66
2023-03-30T03:58:22.954Z,99187.31
2023-03-30T04:00:50.540Z,99185.91
2023-03-30T04:03:18.178Z,99195.81
2023-03-30T04:05:45.638Z,99188.75
2023-03-30T04:08:13.010Z,99178.94
2023-03-30T04:10:42.178Z,99187.03
2023-03-30T04:13:09.937Z,99187.13
2023-03-30T04:15:37.450Z,99208.16
2023-03-30T04:18:05.430Z,99218.88
2023-03-30T04:20:32.927Z,99227.03
2023-03-30T04:23:01.872Z,99229.91
2023-03-30T04:25:29.421Z,99245.06
2023-03-30T04:27:57.406Z,99265.63
2023-03-30T04:30:24.903Z,99271.97
2023-03-30T04:33:02.683Z,99286.16
2023-03-30T04:35:32.558Z,99289.69
2023-03-30T04:38:02.197Z,99311.63
2023-03-30T04:40:30.178Z,99321.38
2023-03-30T04:43:02.787Z,99315.13
2023-03-30T04:45:31.333Z,99319.63
2023-03-30T04:47:59.126Z,99316.09
2023-03-30T04:50:26.693Z,99332.00
2023-03-30T04:52:54.015Z,99348.63
2023-03-30T04:55:21.435Z,99346.03
2023-03-30T04:57:48.891Z,99370.72
2023-03-30T05:00:17.528Z,99374.19
2023-03-30T05:02:45.022Z,99374.28
2023-03-30T05:05:12.108Z,99389.44
2023-03-30T05:07:39.481Z,99397.56
2023-03-30T05:10:08.011Z,99411.66
2023-03-30T05:12:35.530Z,99429.25
2023-03-30T05:15:03.201Z,99438.13
2023-03-30T05:17:34.115Z,99448.56
2023-03-30T05:20:02.449Z,99443.28
2023-03-30T05:22:29.802Z,99456.59
2023-03-30T05:24:57.344Z,99467.16
2023-03-30T05:27:24.742Z,99495.38
2023-03-30T05:29:52.106Z,99517.50
2023-03-30T05:32:19.508Z,99557.91
2023-03-30T05:34:47.110Z,99609.50
2023-03-30T05:37:14.822Z,99621.25
2023-03-30T05:39:42.581Z,99642.88
2023-03-30T05:42:11.703Z,99650.00
2023-03-30T05:44:39.085Z,99662.22
2023-03-30T05:47:06.568Z,99679.72
2023-03-30T05:49:33.933Z,99704.19
2023-03-30T05:52:01.299Z,99711.25
2023-03-30T05:54:28.817Z,99713.06
2023-03-30T05:56:56.253Z,99710.44
2023-03-30T05:59:23.967Z,99725.63
2023-03-30T06:01:51.457Z,99730.09
2023-03-30T06:04:18.902Z,99731.03
2023-03-30T06:06:46.566Z,99760.25
2023-03-30T06:09:13.858Z,99778.91
2023-03-30T06:11:41.493Z,99786.88
2023-03-30T06:14:09.987Z,99801.06
2023-03-30T06:16:37.210Z,99797.59
2023-03-30T06:19:04.598Z,99802.91
2023-03-30T06:21:32.067Z,99807.34
2023-03-30T06:23:59.184Z,99797.72
2023-03-30T06:26:26.564Z,99777.47
2023-03-30T06:28:53.928Z,99770.47
2023-03-30T06:31:21.341Z,99755.44
2023-03-30T06:33:50.223Z,99749.19
2023-03-30T06:36:17.774Z,99722.75
2023-03-30T06:38:45.176Z,99753.69
2023-03-30T06:41:12.961Z,99744.03
2023-03-30T06:43:40.678Z,99750.38
2023-03-30T06:46:08.667Z,99761.88
2023-03-30T06:48:36.829Z,99775.16
2023-03-30T06:51:05.596Z,99789.28
2023-03-30T06:53:33.408Z,99796.38
2023-03-30T06:56:00.964Z,99810.56
2023-03-30T06:58:28.524Z,99813.16
2023-03-30T07:00:56.845Z,99816.69
2023-03-30T07:03:24.529Z,99823.63
2023-03-30T07:05:52.468Z,99820.03
2023-03-30T07:08:20.252Z,99811.97
2023-03-30T07:10:48.266Z,99809.44
2023-03-30T07:13:16.953Z,99812.88
2023-03-30T07:15:46.096Z,99811.19
2023-03-30T07:18:14.105Z,99832.38
2023-03-30T07:20:41.184Z,99841.19
2023-03-30T07:23:09.045Z,99802.38
2023-03-30T07:25:36.390Z,99805.94
2023-03-30T07:28:06.315Z,99815.44
2023-03-30T07:30:34.809Z,99835.84
2023-03-30T07:33:03.178Z,99840.41
2023-03-30T07:35:30.917Z,99859.03
2023-03-30T07:38:03.413Z,99873.28
2023-03-30T07:40:31.702Z,99868.88
2023-03-30T07:42:59.315Z,99838.78
2023-03-30T07:45:27.142Z,99839.59
2023-03-30T07:47:54.604Z,99845.72
2023-03-30T07:50:22.842Z,99855.38
2023-03-30T07:52:52.350Z,99858.09
2023-03-30T07:55:20.111Z,99867.00
2023-03-30T07:57:47.435Z,99870.53
2023-03-30T08:00:14.930Z,99875.91
2023-03-30T08:02:42.756Z,99887.41
2023-03-30T08:05:11.374Z,99890.06
2023-03-30T08:07:38.954Z,99883.88
2023-03-30T08:10:08.150Z,99880.28
2023-03-30T08:12:35.629Z,99893.53
2023-03-30T08:15:03.871Z,99895.25
2023-03-30T08:17:31.105Z,99886.41
2023-03-30T08:19:58.483Z,99889.91
2023-03-30T08:22:25.998Z,99899.59
2023-03-30T08:24:53.388Z,99905.72
2023-03-30T08:27:20.837Z,99906.63
2023-03-30T08:29:48.889Z,99906.63
2023-03-30T08:32:16.498Z,99926.03
2023-03-30T08:34:44.786Z,99949.75
2023-03-30T08:37:12.547Z,99967.41
2023-03-30T08:39:39.980Z,99976.31
2023-03-30T08:42:50.595Z,99978.97
2023-03-30T08:45:18.771Z,99980.78
2023-03-30T08:47:50.197Z,99979.00
2023-03-30T08:50:31.120Z,99971.06
2023-03-30T08:52:58.563Z,99970.13
2023-03-30T08:55:28.597Z,99947.38
2023-03-30T08:58:27.302Z,99945.97
2023-03-30T09:00:54.616Z,99972.41
2023-03-30T09:03:45.605Z,99965.00
2023-03-30T09:06:18.082Z,99930.91
2023-03-30T09:08:46.119Z,99873.88
2023-03-30T09:11:19.605Z,99816.03
2023-03-30T09:13:47.385Z,99772.47
2023-03-30T09:16:48.743Z,99728.97
2023-03-30T09:19:27.950Z,99719.16
2023-03-30T09:21:57.708Z,99650.81
2023-03-30T09:24:29.583Z,99600.25
2023-03-30T09:27:48.070Z,99596.78
2023-03-30T09:30:53.713Z,99628.31
2023-03-30T09:33:52.202Z,99589.94
2023-03-30T09:36:29.732Z,99556.88
2023-03-30T09:38:57.242Z,99514.34
2023-03-30T09:41:41.948Z,99490.59
2023-03-30T09:44:23.336Z,99508.31
2023-03-30T09:46:53.985Z,99494.06
2023-03-30T09:49:21.380Z,99499.72
2023-03-30T09:52:22.881Z,99492.34
2023-03-30T09:54:50.471Z,99491.47
2023-03-30T09:57:34.495Z,99515.38
2023-03-30T10:00:02.298Z,99507.13
2023-03-30T10:02:31.592Z,99496.63
2023-03-30T10:05:02.478Z,99493.19
2023-03-30T10:07:37.958Z,99475.50
2023-03-30T10:10:38.627Z,99446.31
2023-03-30T10:13:17.077Z,99481.91
2023-03-30T10:15:49.905Z,99472.22
2023-03-30T10:18:37.763Z,99505.03
2023-03-30T10:21:27.890Z,99491.75
2023-03-30T10:24:19.193Z,99493.47
2023-03-30T10:26:47.180Z,99482.72
2023-03-30T10:29:18.497Z,99503.03
2023-03-30T10:31:48.686Z,99506.53
2023-03-30T10:34:28.590Z,99495.84
2023-03-30T10:36:56.189Z,99520.59
2023-03-30T10:39:29.866Z,99514.19
2023-03-30T10:41:59.969Z,99513.28
2023-03-30T10:44:47.954Z,99510.81
2023-03-30T10:47:39.174Z,99571.41
2023-03-30T10:50:40.596Z,99541.66
2023-03-30T10:53:31.562Z,99525.28
2023-03-30T10:56:20.274Z,99508.16
2023-03-30T10:58:53.559Z,99468.03
2023-03-30T11:01:36.794Z,99459.97
2023-03-30T11:04:22.659Z,99473.47
2023-03-30T11:06:53.556Z,99434.72
2023-03-30T11:09:28.222Z,99391.47
2023-03-30T11:12:02.158Z,99422.66
2023-03-30T11:14:51.925Z,99378.06
2023-03-30T11:17:55.601Z,99412.56
2023-03-30T11:20:27.517Z,99387.78
2023-03-30T11:23:22.009Z,99409.94
2023-03-30T11:26:00.458Z,99330.88
2023-03-30T11:28:42.879Z,99369.53
2023-03-30T11:31:42.405Z,99279.75
2023-03-30T11:34:53.773Z,99271.00
2023-03-30T11:37:34.066Z,99129.63
2023-03-30T11:40:30.203Z,99169.28
2023-03-30T11:42:57.606Z,99086.94
2023-03-30T11:46:21.800Z,99148.47
2023-03-30T11:49:13.471Z,99150.91
2023-03-30T11:52:22.405Z,99086.81
2023-03-30T11:55:08.851Z,99036.75
2023-03-30T11:57:36.196Z,99039.50
2023-03-30T12:00:28.272Z,98967.44
2023-03-30T12:03:35.205Z,98959.47
2023-03-30T12:06:16.930Z,98933.72
2023-03-30T12:09:05.907Z,98909.38
2023-03-30T12:11:36.107Z,98837.00
2023-03-30T12:14:03.508Z,98771.72
2023-03-30T12:16:40.787Z,98813.66
2023-03-30T12:19:11.198Z,98680.41
2023-03-30T12:22:03.017Z,98757.06
2023-03-30T12:24:49.149Z,98740.31
2023-03-30T12:27:16.575Z,98750.94
2023-03-30T12:32:29.349Z,98742.91
2023-03-30T12:34:58.605Z,98692.09
2023-03-30T12:37:38.152Z,98701.63
2023-03-30T12:40:22.412Z,98672.06
2023-03-30T12:43:15.121Z,98630.03
2023-03-30T12:46:14.124Z,98448.78
2023-03-30T12:48:54.724Z,98594.56
2023-03-30T12:51:47.779Z,98684.66
2023-03-30T12:54:54.482Z,98572.81
2023-03-30T12:57:33.203Z,98448.72
2023-03-30T13:00:48.057Z,98424.59
2023-03-30T13:03:36.824Z,98385.53
2023-03-30T13:08:41.906Z,98391.28
2023-03-30T13:11:22.507Z,98393.69
2023-03-30T13:13:57.508Z,98371.28
2023-03-30T13:16:55.520Z,98398.63
2023-03-30T13:19:34.276Z,98405.59
2023-03-30T13:22:13.671Z,98204.50
2023-03-30T13:25:12.497Z,98307.81
2023-03-30T13:27:42.151Z,98181.06
2023-03-30T13:30:09.620Z,98231.28
2023-03-30T13:33:04.904Z,98113.13
2023-03-30T13:35:57.382Z,98031.25
2023-03-30T13:38:50.399Z,98052.19
2023-03-30T13:41:34.797Z,98065.22
2023-03-30T13:44:37.651Z,98128.81
2023-03-30T13:47:05.064Z,98066.41
2023-03-30T13:49:54.355Z,97971.09
2023-03-30T13:52:33.579Z,98013.72
2023-03-30T13:55:03.380Z,97935.63
2023-03-30T13:57:38.325Z,97996.38
2023-03-30T14:00:48.904Z,97720.91
2023-03-30T14:03:46.632Z,97693.84
2023-03-30T14:06:17.666Z,97707.25
2023-03-30T14:08:48.419Z,97775.81
2023-03-30T14:11:19.667Z,97852.50
2023-03-30T14:13:52.503Z,98129.28
2023-03-30T14:16:35.305Z,98108.22
2023-03-30T14:19:25.494Z,98152.84
2023-03-30T14:22:14.201Z,97923.41
2023-03-30T14:25:01.230Z,97806.31
2023-03-30T14:27:38.989Z,97668.13
2023-03-30T14:30:24.826Z,97662.97
2023-03-30T14:33:08.230Z,97705.94
2023-03-30T14:35:42.392Z,97635.06
2023-03-30T14:38:40.118Z,97634.91
2023-03-30T14:41:27.463Z,97629.66
2023-03-30T14:43:57.608Z,97635.25
2023-03-30T14:46:38.360Z,97577.03
2023-03-30T14:49:08.598Z,97523.94
2023-03-30T14:51:43.184Z,97568.59
2023-03-30T14:54:18.708Z,97524.34
2023-03-30T14:57:03.911Z,97504.25
2023-03-30T14:59:34.626Z,97574.31
2023-03-30T15:02:02.466Z,97604.16
2023-03-30T15:04:34.750Z,97684.84
2023-03-30T15:07:02.190Z,97602.53
2023-03-30T15:09:39.210Z,97522.78
2023-03-30T15:12:07.130Z,97465.41
2023-03-30T15:14:41.978Z,97447.31
2023-03-30T15:17:16.632Z,97467.44
2023-03-30T15:19:54.318Z,97429.00
2023-03-30T15:22:46.686Z,97487.34
2023-03-30T15:25:31.494Z,97512.84
2023-03-30T15:28:07.773Z,97398.63
2023-03-30T15:30:44.361Z,97398.28
2023-03-30T15:33:38.695Z,97352.00
2023-03-30T15:36:12.853Z,97313.72
2023-03-30T15:38:56.723Z,97332.53
2023-03-30T15:41:44.860Z,97413.16
2023-03-30T15:44:22.881Z,97414.91
2023-03-30T15:46:52.887Z,97411.16
2023-03-30T15:49:24.831Z,97384.50
2023-03-30T15:51:58.670Z,97502.34
2023-03-30T15:54:27.355Z,97528.31
2023-03-30T15:57:13.229Z,97473.72
2023-03-30T15:59:52.507Z,97553.81
2023-03-30T16:02:25.386Z,97504.34
2023-03-30T16:04:54.468Z,97473.00
2023-03-30T16:07:24.920Z,97441.22
2023-03-30T16:09:53.075Z,97490.00
2023-03-30T16:12:25.758Z,97517.03
2023-03-30T16:14:53.674Z,97522.94
2023-03-30T16:17:21.270Z,97567.16
2023-03-30T16:19:48.675Z,97606.69
2023-03-30T16:22:16.439Z,97589.41
2023-03-30T16:24:43.870Z,97619.34
2023-03-30T16:27:12.285Z,97622.53
2023-03-30T16:29:40.070Z,97653.88
2023-03-30T16:32:07.904Z,97704.13
2023-03-30T16:34:35.352Z,97713.50
2023-03-30T16:37:03.737Z,97733.41
2023-03-30T16:39:31.355Z,97745.63
2023-03-30T16:41:58.737Z,97731.50
2023-03-30T16:44:26.333Z,97717.34
2023-03-30T16:46:53.884Z,97699.88
2023-03-30T16:49:24.732Z,97717.88
2023-03-30T16:51:55.250Z,97731.03
2023-03-30T16:54:32.179Z,97758.81
2023-03-30T16:57:01.561Z,97775.56
2023-03-30T16:59:32.761Z,97815.97
2023-03-30T17:02:00.724Z,97868.69
2023-03-30T17:04:28.411Z,97947.16
2023-03-30T17:06:55.804Z,98009.78
2023-03-30T17:09:23.456Z,98084.47
2023-03-30T17:11:50.857Z,98209.75
2023-03-30T17:14:20.420Z,98256.31
2023-03-30T17:16:47.838Z,98322.97
2023-03-30T17:19:17.813Z,98375.88
2023-03-30T17:21:46.103Z,98388.44
2023-03-30T17:24:15.316Z,98389.19
2023-03-30T17:26:42.940Z,98395.50
2023-03-30T17:29:10.884Z,98414.81
2023-03-30T17:31:38.796Z,98393.03
2023-03-30T17:34:07.574Z,98395.63
2023-03-30T17:36:35.061Z,98406.97
2023-03-30T17:39:05.693Z,98441.63
2023-03-30T17:41:36.239Z,98445.25
2023-03-30T17:44:03.564Z,98466.72
2023-03-30T17:46:31.183Z,98478.41
2023-03-30T17:48:59.952Z,98486.88
2023-03-30T17:51:27.460Z,98504.63
2023-03-30T17:53:54.859Z,98560.66
2023-03-30T17:56:22.410Z,98586.03
2023-03-30T17:58:49.856Z,98612.91
2023-03-30T18:01:17.256Z,98639.75
2023-03-30T18:03:45.198Z,98644.41
2023-03-30T18:06:13.372Z,98658.50
2023-03-30T18:08:43.027Z,98635.66
2023-03-30T18:11:10.518Z,98647.22
2023-03-30T18:13:38.112Z,98625.19
2023-03-30T18:16:06.128Z,98638.97
2023-03-30T18:18:33.571Z,98624.22
2023-03-30T18:21:03.451Z,98616.84
2023-03-30T18:23:34.127Z,98613.38
2023-03-30T18:26:03.807Z,98642.50
2023-03-30T18:28:31.773Z,98691.13
2023-03-30T18:31:00.878Z,98715.59
2023-03-30T18:33:28.799Z,98735.88
2023-03-30T18:36:04.984Z,98752.03
2023-03-30T18:38:33.630Z,98767.28
2023-03-30T18:41:01.588Z,98800.72
2023-03-30T18:43:29.254Z,98856.22
2023-03-30T18:46:02.846Z,98868.13
2023-03-30T18:48:30.686Z,98887.41
2023-03-30T18:50:58.266Z,98871.94
2023-03-30T18:53:28.998Z,98905.31
2023-03-30T18:56:00.516Z,98966.19
2023-03-30T18:58:33.428Z,98974.00
2023-03-30T19:01:01.498Z,98997.94
2023-03-30T19:03:30.101Z,99024.13
2023-03-30T19:05:57.751Z,99014.91
2023-03-30T19:08:26.793Z,99046.34
2023-03-30T19:10:57.109Z,99088.88
2023-03-30T19:13:26.793Z,99127.00
2023-03-30T19:15:54.821Z,99163.19
2023-03-30T19:18:22.800Z,99197.69
2023-03-30T19:20:51.346Z,99229.56
2023-03-30T19:23:19.627Z,99255.03
2023-03-30T19:25:48.781Z,99273.56
2023-03-30T19:28:16.360Z,99297.31
2023-03-30T19:30:43.834Z,99301.72
2023-03-30T19:33:16.516Z,99315.78
2023-03-30T19:35:45.382Z,99336.97
2023-03-30T19:38:13.256Z,99353.78
2023-03-30T19:40:41.349Z,99355.41
2023-03-30T19:43:09.836Z,99371.31
2023-03-30T19:45:37.321Z,99368.66
2023-03-30T19:48:05.043Z,99369.56
2023-03-30T19:50:32.518Z,99362.50
2023-03-30T19:53:00.197Z,99350.25
2023-03-30T19:55:27.688Z,99352.97
2023-03-30T19:57:55.276Z,99348.69
2023-03-30T20:00:22.802Z,99354.91
2023-03-30T20:02:53.002Z,99362.81
2023-03-30T20:05:23.167Z,99365.47
2023-03-30T20:07:51.252Z,99376.06
2023-03-30T20:10:22.301Z,99384.00
2023-03-30T20:12:50.027Z,99393.66
2023-03-30T20:15:19.467Z,99403.31
2023-03-30T20:17:47.007Z,99405.03
2023-03-30T20:20:25.061Z,99414.97
2023-03-30T20:22:55.761Z,99427.44
2023-03-30T20:25:23.292Z,99451.25
2023-03-30T20:27:50.634Z,99468.75
2023-03-30T20:30:18.883Z,99485.47
2023-03-30T20:32:56.007Z,99486.34
2023-03-30T20:35:32.118Z,99506.75
2023-03-30T20:37:59.605Z,99535.97
2023-03-30T20:40:27.299Z,99549.34
2023-03-30T20:43:02.018Z,99566.97
2023-03-30T20:45:31.951Z,99581.91
2023-03-30T20:48:06.146Z,99585.38
2023-03-30T20:50:33.958Z,99585.22
2023-03-30T20:53:01.588Z,99585.06
2023-03-30T20:55:29.072Z,99572.66
2023-03-30T20:57:56.442Z,99566.44
2023-03-30T21:00:24.235Z,99556.69
2023-03-30T21:02:51.583Z,99545.16
2023-03-30T21:05:19.003Z,99538.03
2023-03-30T21:07:47.085Z,99522.13
2023-03-30T21:10:16.340Z,99525.63
2023-03-30T21:12:43.725Z,99514.16
2023-03-30T21:15:11.540Z,99508.78
2023-03-30T21:17:38.895Z,99496.41
2023-03-30T21:20:09.324Z,99504.44
2023-03-30T21:22:36.796Z,99509.72
2023-03-30T21:25:03.974Z,99530.31
2023-03-30T21:27:31.561Z,99543.78
2023-03-30T21:29:58.938Z,99558.81
2023-03-30T21:32:26.344Z,99580.09
2023-03-30T21:34:53.777Z,99581.03
2023-03-30T21:37:21.101Z,99593.41
2023-03-30T21:39:49.330Z,99591.66
2023-03-30T21:42:18.067Z,99591.66
2023-03-30T21:44:45.440Z,99601.19
2023-03-30T21:47:16.451Z,99578.16
2023-03-30T21:49:44.043Z,99565.81
2023-03-30T21:52:11.948Z,99555.28
2023-03-30T21:54:39.513Z,99557.94
2023-03-30T21:57:06.906Z,99570.34
2023-03-30T21:59:34.298Z,99578.31
2023-03-30T22:02:01.689Z,99588.06
2023-03-30T22:04:29.119Z,99595.13
2023-03-30T22:06:56.467Z,99602.19
2023-03-30T22:09:23.776Z,99617.16
2023-03-30T22:11:53.101Z,99633.00
2023-03-30T22:14:20.609Z,99633.91
2023-03-30T22:16:47.760Z,99633.91
2023-03-30T22:19:15.147Z,99634.78
2023-03-30T22:21:42.503Z,99646.22
2023-03-30T22:24:11.982Z,99648.84
2023-03-30T22:26:39.427Z,99649.78
2023-03-30T22:29:07.050Z,99655.06
2023-03-30T22:31:34.750Z,99663.88
2023-03-30T22:34:02.091Z,99651.53
2023-03-30T22:36:31.043Z,99647.13
2023-03-30T22:39:00.673Z,99662.97
2023-03-30T22:41:28.646Z,99658.50
2023-03-30T22:43:59.246Z,99667.34
2023-03-30T22:46:27.735Z,99666.44
2023-03-30T22:48:58.352Z,99657.59
2023-03-30T22:51:26.696Z,99658.50
2023-03-30T22:53:58.247Z,99662.84
2023-03-30T22:56:27.409Z,99658.47
2023-03-30T22:58:54.871Z,99654.97
2023-03-30T23:01:22.468Z,99670.88
2023-03-30T23:03:50.592Z,99670.00
2023-03-30T23:06:19.244Z,99670.00
2023-03-30T23:08:48.624Z,99677.97
2023-03-30T23:11:16.617Z,99670.91
2023-03-30T23:13:44.138Z,99673.53
2023-03-30T23:16:11.542Z,99669.09
2023-03-30T23:18:39.581Z,99669.94
2023-03-30T23:21:08.346Z,99659.34
2023-03-30T23:23:36.735Z,99659.31
2023-03-30T23:26:09.023Z,99659.38
2023-03-30T23:28:42.136Z,99660.25
2023-03-30T23:31:15.824Z,99657.59
2023-03-30T23:33:44.326Z,99661.13
2023-03-30T23:36:13.790Z,99651.41
2023-03-30T23:38:41.740Z,99653.19
2023-03-30T23:41:09.437Z,99653.16
2023-03-30T23:43:36.947Z,99649.59
2023-03-30T23:46:04.874Z,99652.28
2023-03-30T23:48:32.821Z,99642.59
2023-03-30T23:51:00.520Z,99647.84
2023-03-30T23:53:27.935Z,99646.06
2023-03-30T23:55:55.497Z,99636.34
2023-03-30T23:58:23.024Z,99634.53
